createdAt,value
2023-04-15T00:03:28.214Z,93985.00
2023-04-15T00:07:28.296Z,93989.00
2023-04-15T00:11:28.889Z,93980.00
2023-04-15T00:15:28.930Z,93987.00
2023-04-15T00:19:28.939Z,93983.00
2023-04-15T00:23:28.999Z,93982.00
2023-04-15T00:27:29.208Z,93974.00
2023-04-15T00:31:29.650Z,93976.00
2023-04-15T00:35:29.407Z,93978.00
2023-04-15T00:39:29.444Z,93980.00
2023-04-15T00:43:29.439Z,93978.00
2023-04-15T00:47:29.041Z,93974.00
2023-04-15T00:51:29.434Z,93972.00
2023-04-15T00:55:29.460Z,93980.00
2023-04-15T00:59:29.452Z,93982.00
2023-04-15T01:03:29.425Z,93974.00
2023-04-15T01:07:29.470Z,93976.00
2023-04-15T01:11:29.672Z,93974.00
2023-04-15T01:15:29.837Z,93978.00
2023-04-15T01:19:30.027Z,93978.00
2023-04-15T01:23:30.108Z,93980.00
2023-04-15T01:27:30.203Z,93982.00
2023-04-15T01:31:30.493Z,93983.00
2023-04-15T01:35:30.444Z,93980.00
2023-04-15T01:39:31.459Z,93978.00
2023-04-15T01:43:30.624Z,93982.00
2023-04-15T01:47:31.028Z,93983.00
2023-04-15T01:51:30.973Z,93978.00
2023-04-15T01:55:30.967Z,93980.00
2023-04-15T01:59:30.954Z,93976.00
2023-04-15T02:03:31.120Z,93976.00
2023-04-15T02:07:31.476Z,93978.00
2023-04-15T02:11:31.475Z,93976.00
2023-04-15T02:15:31.491Z,93976.00
2023-04-15T02:19:31.175Z,93978.00
2023-04-15T02:23:31.132Z,93982.00
2023-04-15T02:27:31.484Z,93976.00
2023-04-15T02:31:31.502Z,93974.00
2023-04-15T02:35:31.455Z,93974.00
2023-04-15T02:39:31.098Z,93976.00
2023-04-15T02:43:31.472Z,93970.00
2023-04-15T02:47:31.534Z,93970.00
2023-04-15T02:51:31.479Z,93972.00
2023-04-15T02:55:31.504Z,93972.00
2023-04-15T02:59:31.038Z,93974.00
2023-04-15T03:03:31.158Z,93970.00
2023-04-15T03:07:30.984Z,93970.00
2023-04-15T03:11:30.934Z,93976.00
2023-04-15T03:15:31.072Z,93978.00
2023-04-15T03:19:30.907Z,93974.00
2023-04-15T03:23:31.010Z,93970.00
2023-04-15T03:27:31.035Z,93972.00
2023-04-15T03:31:30.928Z,93972.00
2023-04-15T03:35:31.017Z,93972.00
2023-04-15T03:39:30.874Z,93972.00
2023-04-15T03:43:31.031Z,93974.00
2023-04-15T03:47:31.020Z,93976.00
2023-04-15T03:51:31.015Z,93974.00
2023-04-15T03:55:31.017Z,93976.00
2023-04-15T03:59:30.853Z,93976.00
2023-04-15T04:03:30.941Z,93976.00
2023-04-15T04:07:30.830Z,93978.00
2023-04-15T04:11:31.032Z,93982.00
2023-04-15T04:15:30.815Z,93978.00
2023-04-15T04:19:30.824Z,93978.00
2023-04-15T04:23:30.858Z,93982.00
2023-04-15T04:27:31.027Z,93983.00
2023-04-15T04:31:30.947Z,93982.00
2023-04-15T04:35:30.879Z,93991.00
2023-04-15T04:39:31.056Z,93993.00
2023-04-15T04:43:31.045Z,93995.00
2023-04-15T04:47:31.081Z,94001.00
2023-04-15T04:51:30.936Z,94003.00
2023-04-15T04:55:30.954Z,94003.00
2023-04-15T04:59:31.039Z,94003.00
2023-04-15T05:03:31.043Z,94007.00
2023-04-15T05:07:31.044Z,94009.00
2023-04-15T05:11:31.055Z,94005.00
2023-04-15T05:15:31.132Z,94001.00
2023-04-15T05:19:31.549Z,94007.00
2023-04-15T05:23:31.235Z,94005.00
2023-04-15T05:27:31.525Z,94009.00
2023-04-15T05:31:31.598Z,94013.00
2023-04-15T05:35:31.330Z,94015.00
2023-04-15T05:39:31.572Z,94017.00
2023-04-15T05:43:31.419Z,94019.00
2023-04-15T05:47:31.568Z,94021.00
2023-04-15T05:51:31.533Z,94021.00
2023-04-15T05:55:31.585Z,94027.00
2023-04-15T05:59:32.045Z,94029.00
2023-04-15T06:03:31.844Z,94032.00
2023-04-15T06:07:32.060Z,94038.00
2023-04-15T06:11:31.820Z,94038.00
2023-04-15T06:15:31.929Z,94034.00
2023-04-15T06:19:31.953Z,94029.00
2023-04-15T06:23:32.035Z,94029.00
2023-04-15T06:27:32.578Z,94027.00
2023-04-15T06:31:32.624Z,94030.00
2023-04-15T06:35:32.164Z,94032.00
2023-04-15T06:39:32.564Z,94034.00
2023-04-15T06:43:32.218Z,94034.00
2023-04-15T06:47:32.689Z,94036.00
2023-04-15T06:51:32.594Z,94032.00
2023-04-15T06:55:32.402Z,94034.00
2023-04-15T06:59:32.566Z,94034.00
2023-04-15T07:03:32.942Z,94030.00
2023-04-15T07:07:32.619Z,94025.00
2023-04-15T07:11:32.603Z,94027.00
2023-04-15T07:15:33.116Z,94025.00
2023-04-15T07:19:32.685Z,94029.00
2023-04-15T07:23:33.090Z,94029.00
2023-04-15T07:27:32.795Z,94027.00
2023-04-15T07:31:32.861Z,94021.00
2023-04-15T07:35:32.842Z,94021.00
2023-04-15T07:39:33.124Z,94021.00
2023-04-15T07:43:33.117Z,94015.00
2023-04-15T07:47:33.121Z,94015.00
2023-04-15T07:51:33.026Z,94009.00
2023-04-15T07:55:33.052Z,94009.00
2023-04-15T07:59:33.127Z,94003.00
2023-04-15T08:03:33.263Z,93997.00
2023-04-15T08:07:33.173Z,94001.00
2023-04-15T08:11:33.200Z,94001.00
2023-04-15T08:15:33.616Z,94001.00
2023-04-15T08:19:33.635Z,93999.00
2023-04-15T08:23:33.622Z,93995.00
2023-04-15T08:27:33.627Z,93993.00
2023-04-15T08:31:33.325Z,93997.00
2023-04-15T08:35:33.334Z,93995.00
2023-04-15T08:39:33.623Z,93997.00
2023-04-15T08:43:33.624Z,93991.00
2023-04-15T08:47:33.379Z,93989.00
2023-04-15T08:51:33.643Z,93983.00
2023-04-15T08:55:33.696Z,93985.00
2023-04-15T08:59:33.412Z,93987.00
2023-04-15T09:03:33.466Z,93983.00
2023-04-15T09:07:33.456Z,93982.00
2023-04-15T09:11:33.638Z,93980.00
2023-04-15T09:15:33.673Z,93980.00
2023-04-15T09:19:33.405Z,93978.00
2023-04-15T09:23:33.651Z,93972.00
2023-04-15T09:27:33.360Z,93974.00
2023-04-15T09:31:33.648Z,93968.00
2023-04-15T09:35:33.660Z,93970.00
2023-04-15T09:39:33.297Z,93968.00
2023-04-15T09:43:33.681Z,93970.00
2023-04-15T09:47:33.279Z,93968.00
2023-04-15T09:51:33.704Z,93962.00
2023-04-15T09:55:33.651Z,93960.00
2023-04-15T09:59:33.163Z,93958.00
2023-04-15T10:03:33.335Z,93960.00
2023-04-15T10:07:33.183Z,93960.00
2023-04-15T10:11:33.147Z,93958.00
2023-04-15T10:15:33.197Z,93956.00
2023-04-15T10:19:33.152Z,93958.00
2023-04-15T10:23:33.096Z,93960.00
2023-04-15T10:27:33.167Z,93956.00
2023-04-15T10:31:33.268Z,93960.00
2023-04-15T10:35:33.201Z,93960.00
2023-04-15T10:39:33.038Z,93954.00
2023-04-15T10:43:33.050Z,93962.00
2023-04-15T10:47:33.238Z,93962.00
2023-04-15T10:51:33.694Z,93962.00
2023-04-15T10:55:32.978Z,93960.00
2023-04-15T10:59:33.211Z,93958.00
2023-04-15T11:03:33.168Z,93962.00
2023-04-15T11:07:33.192Z,93960.00
2023-04-15T11:11:32.912Z,93954.00
2023-04-15T11:15:33.186Z,93948.00
2023-04-15T11:19:33.204Z,93946.00
2023-04-15T11:23:32.872Z,93952.00
2023-04-15T11:27:33.187Z,93956.00
2023-04-15T11:31:33.234Z,93958.00
2023-04-15T11:35:33.185Z,93960.00
2023-04-15T11:39:32.848Z,93960.00
2023-04-15T11:43:32.799Z,93958.00
2023-04-15T11:47:33.241Z,93962.00
2023-04-15T11:51:32.828Z,93970.00
2023-04-15T11:55:33.180Z,93974.00
2023-04-15T11:59:44.429Z,93978.00
2023-04-15T12:03:33.954Z,93974.00
2023-04-15T12:07:32.731Z,93978.00
2023-04-15T12:11:32.734Z,93982.00
2023-04-15T12:15:32.669Z,93983.00
2023-04-15T12:19:32.621Z,93987.00
2023-04-15T12:23:32.702Z,93982.00
2023-04-15T12:27:32.726Z,93985.00
2023-04-15T12:31:32.822Z,93987.00
2023-04-15T12:35:32.495Z,93991.00
2023-04-15T12:39:32.505Z,93997.00
2023-04-15T12:43:32.729Z,93999.00
2023-04-15T12:47:32.863Z,94001.00
2023-04-15T12:51:32.744Z,94005.00
2023-04-15T12:55:32.720Z,94009.00
2023-04-15T12:59:32.703Z,94015.00
2023-04-15T13:03:39.974Z,94021.00
2023-04-15T13:07:32.777Z,94025.00
2023-04-15T13:11:32.741Z,94032.00
2023-04-15T13:15:32.714Z,94034.00
2023-04-15T13:19:32.680Z,94036.00
2023-04-15T13:23:32.776Z,94038.00
2023-04-15T13:27:32.777Z,94048.00
2023-04-15T13:31:32.804Z,94052.00
2023-04-15T13:35:32.541Z,94056.00
2023-04-15T13:39:32.760Z,94052.00
2023-04-15T13:43:32.795Z,94054.00
2023-04-15T13:47:32.814Z,94070.00
2023-04-15T13:51:32.849Z,94070.00
2023-04-15T13:55:32.910Z,94074.00
2023-04-15T13:59:33.277Z,94081.00
2023-04-15T14:03:33.417Z,94083.00
2023-04-15T14:07:33.303Z,94079.00
2023-04-15T14:11:34.286Z,94079.00
2023-04-15T14:15:33.432Z,94079.00
2023-04-15T14:19:33.785Z,94083.00
2023-04-15T14:23:33.804Z,94087.00
2023-04-15T14:27:33.747Z,94091.00
2023-04-15T14:31:34.307Z,94095.00
2023-04-15T14:35:33.944Z,94101.00
2023-04-15T14:39:34.304Z,94105.00
2023-04-15T14:43:34.323Z,94111.00
2023-04-15T14:47:34.303Z,94124.00
2023-04-15T14:51:34.794Z,94130.00
2023-04-15T14:55:34.415Z,94140.00
2023-04-15T14:59:34.797Z,94142.00
2023-04-15T15:03:34.939Z,94142.00
2023-04-15T15:07:35.317Z,94146.00
2023-04-15T15:11:34.947Z,94150.00
2023-04-15T15:15:35.083Z,94152.00
2023-04-15T15:19:35.316Z,94160.00
2023-04-15T15:23:35.847Z,94170.00
2023-04-15T15:27:38.115Z,94179.00
2023-04-15T15:31:35.850Z,94185.00
2023-04-15T15:35:35.387Z,94195.00
2023-04-15T15:39:35.831Z,94201.00
2023-04-15T15:43:35.804Z,94205.00
2023-04-15T15:47:35.324Z,94211.00
2023-04-15T15:51:35.248Z,94217.00
2023-04-15T15:55:35.349Z,94223.00
2023-04-15T15:59:35.343Z,94230.00
2023-04-15T16:03:35.296Z,94232.00
2023-04-15T16:07:35.323Z,94234.00
2023-04-15T16:11:35.056Z,94242.00
2023-04-15T16:15:35.033Z,94242.00
2023-04-15T16:19:35.151Z,94254.00
2023-04-15T16:23:35.310Z,94258.00
2023-04-15T16:27:46.499Z,94268.00
2023-04-15T16:31:36.486Z,94268.00
2023-04-15T16:35:35.851Z,94271.00
2023-04-15T16:39:35.867Z,94277.00
2023-04-15T16:43:36.369Z,94283.00
2023-04-15T16:47:36.387Z,94291.00
2023-04-15T16:51:36.323Z,94299.00
2023-04-15T16:55:36.840Z,94303.00
2023-04-15T16:59:36.835Z,94309.00
2023-04-15T17:03:37.024Z,94307.00
2023-04-15T17:07:37.333Z,94311.00
2023-04-15T17:11:37.204Z,94319.00
2023-04-15T17:15:37.924Z,94321.00
2023-04-15T17:19:37.827Z,94323.00
2023-04-15T17:23:37.896Z,94330.00
2023-04-15T17:27:38.358Z,94340.00
2023-04-15T17:31:38.204Z,94346.00
2023-04-15T17:35:38.882Z,94352.00
2023-04-15T17:39:38.882Z,94364.00
2023-04-15T17:43:38.896Z,94370.00
2023-04-15T17:47:39.411Z,94383.00
2023-04-15T17:51:39.195Z,94385.00
2023-04-15T17:55:39.208Z,94397.00
2023-04-15T17:59:39.140Z,94403.00
2023-04-15T18:03:39.174Z,94409.00
2023-04-15T18:07:39.388Z,94417.00
2023-04-15T18:11:39.003Z,94420.00
2023-04-15T18:15:38.956Z,94426.00
2023-04-15T18:19:38.921Z,94432.00
2023-04-15T18:23:38.904Z,94438.00
2023-04-15T18:27:38.923Z,94442.00
2023-04-15T18:31:38.854Z,94452.00
2023-04-15T18:35:39.395Z,94452.00
2023-04-15T18:39:39.388Z,94458.00
2023-04-15T18:43:39.387Z,94460.00
2023-04-15T18:47:39.321Z,94465.00
2023-04-15T18:51:39.258Z,94475.00
2023-04-15T18:55:39.389Z,94481.00
2023-04-15T18:59:39.394Z,94491.00
2023-04-15T19:03:39.171Z,94495.00
2023-04-15T19:07:39.113Z,94503.00
2023-04-15T19:11:39.062Z,94507.00
2023-04-15T19:15:39.447Z,94514.00
2023-04-15T19:19:39.004Z,94528.00
2023-04-15T19:23:39.414Z,94534.00
2023-04-15T19:27:39.113Z,94538.00
2023-04-15T19:31:39.398Z,94542.00
2023-04-15T19:35:39.408Z,94546.00
2023-04-15T19:39:39.400Z,94542.00
2023-04-15T19:43:39.439Z,94546.00
2023-04-15T19:47:39.018Z,94556.00
2023-04-15T19:51:38.863Z,94554.00
2023-04-15T19:55:38.941Z,94560.00
2023-04-15T19:59:38.787Z,94569.00
2023-04-15T20:03:38.910Z,94573.00
2023-04-15T20:07:38.744Z,94579.00
2023-04-15T20:12:46.792Z,94573.00
2023-04-15T20:15:39.951Z,94585.00
2023-04-15T20:19:38.861Z,94585.00
2023-04-15T20:23:38.916Z,94589.00
2023-04-15T20:27:38.811Z,94591.00
2023-04-15T20:31:38.986Z,94595.00
2023-04-15T20:35:38.955Z,94599.00
2023-04-15T20:39:38.926Z,94599.00
2023-04-15T20:43:38.632Z,94605.00
2023-04-15T20:47:38.955Z,94609.00
2023-04-15T20:51:38.987Z,94609.00
2023-04-15T20:55:38.952Z,94614.00
2023-04-15T20:59:38.594Z,94614.00
2023-04-15T21:03:38.766Z,94620.00
2023-04-15T21:07:38.554Z,94628.00
2023-04-15T21:11:57.259Z,94626.00
2023-04-15T21:15:39.974Z,94628.00
2023-04-15T21:19:38.972Z,94636.00
2023-04-15T21:23:38.557Z,94636.00
2023-04-15T21:27:38.982Z,94646.00
2023-04-15T21:31:39.045Z,94644.00
2023-04-15T21:35:38.481Z,94652.00
2023-04-15T21:39:38.460Z,94656.00
2023-04-15T21:43:38.383Z,94654.00
2023-04-15T21:48:04.785Z,94652.00
2023-04-15T21:51:39.514Z,94652.00
2023-04-15T21:55:38.466Z,94659.00
2023-04-15T21:59:38.340Z,94658.00
2023-04-15T22:03:38.459Z,94659.00
2023-04-15T22:07:38.478Z,94661.00
2023-04-15T22:11:38.486Z,94667.00
2023-04-15T22:15:38.193Z,94671.00
2023-04-15T22:19:38.154Z,94669.00
2023-04-15T22:23:38.483Z,94673.00
2023-04-15T22:27:38.473Z,94675.00
2023-04-15T22:31:38.077Z,94681.00
2023-04-15T22:35:38.511Z,94691.00
2023-04-15T22:39:38.196Z,94691.00
2023-04-15T22:43:38.499Z,94693.00
2023-04-15T22:47:38.513Z,94705.00
2023-04-15T22:51:38.525Z,94705.00
2023-04-15T22:55:38.028Z,94705.00
2023-04-15T22:59:37.992Z,94707.00
2023-04-15T23:03:55.829Z,94709.00
2023-04-15T23:07:39.555Z,94711.00
2023-04-15T23:11:37.995Z,94711.00
2023-04-15T23:15:40.232Z,94714.00
2023-04-15T23:19:37.977Z,94714.00
2023-04-15T23:23:37.903Z,94716.00
2023-04-15T23:27:38.021Z,94718.00
2023-04-15T23:31:39.072Z,94726.00
2023-04-15T23:35:37.835Z,94726.00
2023-04-15T23:39:37.831Z,94726.00
2023-04-15T23:43:38.035Z,94724.00
2023-04-15T23:47:38.037Z,94726.00
2023-04-15T23:51:38.000Z,94728.00
2023-04-15T23:55:37.831Z,94728.00
2023-04-15T23:59:39.528Z,94726.00
